sensor_id;sensor_type;location;lat;lon;timestamp;P1;durP1;ratioP1;P2;durP2;ratioP2
11951;SDS011;6036;41.840;23.486;2022-10-18T00:01:45;2.55;;;0.90;;
11951;SDS011;6036;41.840;23.486;2022-10-18T00:04:11;2.67;;;1.20;;
11951;SDS011;6036;41.840;23.486;2022-10-18T00:06:36;1.77;;;0.95;;
11951;SDS011;6036;41.840;23.486;2022-10-18T00:09:02;1.98;;;0.70;;
11951;SDS011;6036;41.840;23.486;2022-10-18T00:11:27;1.73;;;0.77;;
11951;SDS011;6036;41.840;23.486;2022-10-18T00:13:54;1.30;;;0.77;;
11951;SDS011;6036;41.840;23.486;2022-10-18T00:16:20;3.92;;;0.70;;
11951;SDS011;6036;41.840;23.486;2022-10-18T00:18:45;1.55;;;0.65;;
11951;SDS011;6036;41.840;23.486;2022-10-18T00:21:21;3.28;;;0.70;;
11951;SDS011;6036;41.840;23.486;2022-10-18T00:23:49;1.23;;;0.77;;
11951;SDS011;6036;41.840;23.486;2022-10-18T00:26:19;1.25;;;0.73;;
11951;SDS011;6036;41.840;23.486;2022-10-18T00:28:49;2.20;;;0.90;;
11951;SDS011;6036;41.840;23.486;2022-10-18T00:31:23;3.03;;;0.80;;
11951;SDS011;6036;41.840;23.486;2022-10-18T00:33:51;2.22;;;0.93;;
11951;SDS011;6036;41.840;23.486;2022-10-18T00:36:18;1.67;;;0.90;;
11951;SDS011;6036;41.840;23.486;2022-10-18T00:38:45;1.60;;;1.02;;
11951;SDS011;6036;41.840;23.486;2022-10-18T00:41:12;2.15;;;1.38;;
11951;SDS011;6036;41.840;23.486;2022-10-18T00:43:53;1.95;;;1.00;;
11951;SDS011;6036;41.840;23.486;2022-10-18T00:46:18;3.70;;;1.10;;
11951;SDS011;6036;41.840;23.486;2022-10-18T00:48:44;1.50;;;1.02;;
11951;SDS011;6036;41.840;23.486;2022-10-18T00:51:10;1.60;;;0.88;;
11951;SDS011;6036;41.840;23.486;2022-10-18T00:53:36;2.78;;;0.90;;
11951;SDS011;6036;41.840;23.486;2022-10-18T00:56:01;3.78;;;1.15;;
11951;SDS011;6036;41.840;23.486;2022-10-18T00:58:27;3.78;;;1.00;;
11951;SDS011;6036;41.840;23.486;2022-10-18T01:00:53;1.42;;;0.80;;
11951;SDS011;6036;41.840;23.486;2022-10-18T01:03:18;1.42;;;0.68;;
11951;SDS011;6036;41.840;23.486;2022-10-18T01:05:44;1.42;;;0.77;;
11951;SDS011;6036;41.840;23.486;2022-10-18T01:11:01;3.78;;;0.77;;
11951;SDS011;6036;41.840;23.486;2022-10-18T01:32:51;3.25;;;1.05;;
11951;SDS011;6036;41.840;23.486;2022-10-18T01:35:20;3.10;;;0.50;;
11951;SDS011;6036;41.840;23.486;2022-10-18T01:37:49;1.80;;;0.75;;
11951;SDS011;6036;41.840;23.486;2022-10-18T01:40:17;0.88;;;0.60;;
11951;SDS011;6036;41.840;23.486;2022-10-18T01:42:45;1.08;;;0.57;;
11951;SDS011;6036;41.840;23.486;2022-10-18T01:45:13;0.70;;;0.70;;
11951;SDS011;6036;41.840;23.486;2022-10-18T01:47:39;0.50;;;0.32;;
11951;SDS011;6036;41.840;23.486;2022-10-18T01:50:07;2.83;;;0.60;;
11951;SDS011;6036;41.840;23.486;2022-10-18T01:52:33;0.52;;;0.30;;
11951;SDS011;6036;41.840;23.486;2022-10-18T01:54:59;0.90;;;0.32;;
11951;SDS011;6036;41.840;23.486;2022-10-18T01:57:35;1.38;;;0.75;;
11951;SDS011;6036;41.840;23.486;2022-10-18T02:00:04;5.25;;;1.35;;
11951;SDS011;6036;41.840;23.486;2022-10-18T02:09:32;3.50;;;1.90;;
11951;SDS011;6036;41.840;23.486;2022-10-18T02:11:35;1.70;;;0.50;;
11951;SDS011;6036;41.840;23.486;2022-10-18T02:14:08;1.55;;;1.00;;
11951;SDS011;6036;41.840;23.486;2022-10-18T02:16:38;0.73;;;0.50;;
11951;SDS011;6036;41.840;23.486;2022-10-18T02:19:09;1.80;;;0.70;;
11951;SDS011;6036;41.840;23.486;2022-10-18T02:21:41;3.72;;;0.40;;
11951;SDS011;6036;41.840;23.486;2022-10-18T02:24:08;1.20;;;0.40;;
11951;SDS011;6036;41.840;23.486;2022-10-18T02:26:37;2.58;;;0.95;;
11951;SDS011;6036;41.840;23.486;2022-10-18T02:29:02;2.30;;;1.00;;
11951;SDS011;6036;41.840;23.486;2022-10-18T02:34:08;1.75;;;0.77;;
11951;SDS011;6036;41.840;23.486;2022-10-18T02:36:46;5.60;;;1.38;;
11951;SDS011;6036;41.840;23.486;2022-10-18T02:39:36;30.42;;;14.77;;
11951;SDS011;6036;41.840;23.486;2022-10-18T02:42:04;46.00;;;23.50;;
11951;SDS011;6036;41.840;23.486;2022-10-18T02:44:31;34.03;;;18.27;;
11951;SDS011;6036;41.840;23.486;2022-10-18T02:46:58;31.52;;;17.20;;
11951;SDS011;6036;41.840;23.486;2022-10-18T02:49:23;28.65;;;14.43;;
11951;SDS011;6036;41.840;23.486;2022-10-18T02:51:48;27.90;;;14.02;;
11951;SDS011;6036;41.840;23.486;2022-10-18T02:54:14;23.67;;;11.57;;
11951;SDS011;6036;41.840;23.486;2022-10-18T02:56:39;26.55;;;12.00;;
11951;SDS011;6036;41.840;23.486;2022-10-18T02:59:05;25.27;;;12.07;;
11951;SDS011;6036;41.840;23.486;2022-10-18T03:01:31;21.35;;;9.32;;
11951;SDS011;6036;41.840;23.486;2022-10-18T03:03:58;21.52;;;8.85;;
11951;SDS011;6036;41.840;23.486;2022-10-18T03:06:23;11.43;;;5.68;;
11951;SDS011;6036;41.840;23.486;2022-10-18T03:08:48;10.10;;;3.65;;
11951;SDS011;6036;41.840;23.486;2022-10-18T03:11:14;5.78;;;3.47;;
11951;SDS011;6036;41.840;23.486;2022-10-18T03:13:39;6.57;;;1.98;;
11951;SDS011;6036;41.840;23.486;2022-10-18T03:16:04;4.85;;;2.00;;
11951;SDS011;6036;41.840;23.486;2022-10-18T03:18:30;5.57;;;1.70;;
11951;SDS011;6036;41.840;23.486;2022-10-18T03:20:55;4.32;;;2.22;;
11951;SDS011;6036;41.840;23.486;2022-10-18T03:23:21;3.78;;;1.92;;
11951;SDS011;6036;41.840;23.486;2022-10-18T03:25:46;6.60;;;2.00;;
11951;SDS011;6036;41.840;23.486;2022-10-18T03:28:11;3.55;;;1.20;;
11951;SDS011;6036;41.840;23.486;2022-10-18T03:30:37;2.63;;;1.35;;
11951;SDS011;6036;41.840;23.486;2022-10-18T03:33:05;4.88;;;1.35;;
11951;SDS011;6036;41.840;23.486;2022-10-18T03:35:31;1.13;;;0.65;;
11951;SDS011;6036;41.840;23.486;2022-10-18T03:37:56;1.00;;;0.90;;
11951;SDS011;6036;41.840;23.486;2022-10-18T03:40:21;1.30;;;0.88;;
11951;SDS011;6036;41.840;23.486;2022-10-18T03:42:47;1.90;;;1.10;;
11951;SDS011;6036;41.840;23.486;2022-10-18T03:45:12;1.55;;;0.90;;
11951;SDS011;6036;41.840;23.486;2022-10-18T03:47:38;1.27;;;0.82;;
11951;SDS011;6036;41.840;23.486;2022-10-18T03:50:03;1.20;;;0.80;;
11951;SDS011;6036;41.840;23.486;2022-10-18T03:52:29;0.95;;;0.88;;
11951;SDS011;6036;41.840;23.486;2022-10-18T03:54:55;1.13;;;0.73;;
11951;SDS011;6036;41.840;23.486;2022-10-18T03:57:20;1.77;;;0.82;;
11951;SDS011;6036;41.840;23.486;2022-10-18T03:59:45;0.98;;;0.65;;
11951;SDS011;6036;41.840;23.486;2022-10-18T04:02:12;2.88;;;0.95;;
11951;SDS011;6036;41.840;23.486;2022-10-18T04:04:38;3.63;;;1.17;;
11951;SDS011;6036;41.840;23.486;2022-10-18T04:07:03;1.17;;;0.90;;
11951;SDS011;6036;41.840;23.486;2022-10-18T04:09:28;1.63;;;0.80;;
11951;SDS011;6036;41.840;23.486;2022-10-18T04:11:54;2.22;;;1.17;;
11951;SDS011;6036;41.840;23.486;2022-10-18T04:14:19;1.33;;;0.75;;
11951;SDS011;6036;41.840;23.486;2022-10-18T04:16:46;0.50;;;0.50;;
11951;SDS011;6036;41.840;23.486;2022-10-18T04:19:11;1.25;;;0.90;;
11951;SDS011;6036;41.840;23.486;2022-10-18T04:21:37;1.48;;;0.90;;
11951;SDS011;6036;41.840;23.486;2022-10-18T04:24:03;6.22;;;1.55;;
11951;SDS011;6036;41.840;23.486;2022-10-18T04:26:28;1.42;;;1.30;;
11951;SDS011;6036;41.840;23.486;2022-10-18T04:28:54;3.60;;;1.70;;
11951;SDS011;6036;41.840;23.486;2022-10-18T04:31:19;4.97;;;2.00;;
11951;SDS011;6036;41.840;23.486;2022-10-18T04:33:44;3.28;;;2.00;;
11951;SDS011;6036;41.840;23.486;2022-10-18T04:36:10;6.05;;;2.00;;
11951;SDS011;6036;41.840;23.486;2022-10-18T04:38:35;4.72;;;2.95;;
11951;SDS011;6036;41.840;23.486;2022-10-18T04:41:01;5.97;;;2.70;;
11951;SDS011;6036;41.840;23.486;2022-10-18T04:43:26;7.35;;;3.75;;
11951;SDS011;6036;41.840;23.486;2022-10-18T04:45:52;12.32;;;4.85;;
11951;SDS011;6036;41.840;23.486;2022-10-18T04:48:17;10.88;;;6.90;;
11951;SDS011;6036;41.840;23.486;2022-10-18T04:50:42;13.05;;;5.30;;
11951;SDS011;6036;41.840;23.486;2022-10-18T04:53:08;9.55;;;4.00;;
11951;SDS011;6036;41.840;23.486;2022-10-18T04:55:33;9.60;;;5.45;;
11951;SDS011;6036;41.840;23.486;2022-10-18T04:57:59;9.98;;;5.78;;
11951;SDS011;6036;41.840;23.486;2022-10-18T05:00:25;8.90;;;5.40;;
11951;SDS011;6036;41.840;23.486;2022-10-18T05:02:55;4.78;;;3.00;;
11951;SDS011;6036;41.840;23.486;2022-10-18T05:05:21;4.25;;;2.20;;
11951;SDS011;6036;41.840;23.486;2022-10-18T05:07:47;6.53;;;2.88;;
11951;SDS011;6036;41.840;23.486;2022-10-18T05:10:12;2.17;;;1.60;;
11951;SDS011;6036;41.840;23.486;2022-10-18T05:12:38;2.47;;;1.20;;
11951;SDS011;6036;41.840;23.486;2022-10-18T05:15:03;2.40;;;1.30;;
11951;SDS011;6036;41.840;23.486;2022-10-18T05:17:29;1.75;;;1.20;;
11951;SDS011;6036;41.840;23.486;2022-10-18T05:19:54;2.25;;;1.52;;
11951;SDS011;6036;41.840;23.486;2022-10-18T05:22:20;1.25;;;0.90;;
11951;SDS011;6036;41.840;23.486;2022-10-18T05:24:45;3.15;;;1.52;;
11951;SDS011;6036;41.840;23.486;2022-10-18T05:27:11;8.07;;;2.10;;
11951;SDS011;6036;41.840;23.486;2022-10-18T05:29:36;3.95;;;1.55;;
11951;SDS011;6036;41.840;23.486;2022-10-18T05:32:01;4.30;;;2.00;;
11951;SDS011;6036;41.840;23.486;2022-10-18T05:34:27;53.78;;;22.33;;
11951;SDS011;6036;41.840;23.486;2022-10-18T05:36:55;59.80;;;26.27;;
11951;SDS011;6036;41.840;23.486;2022-10-18T05:39:21;59.88;;;25.90;;
11951;SDS011;6036;41.840;23.486;2022-10-18T05:41:47;66.05;;;30.92;;
11951;SDS011;6036;41.840;23.486;2022-10-18T05:44:13;82.25;;;37.97;;
11951;SDS011;6036;41.840;23.486;2022-10-18T05:46:38;82.43;;;42.70;;
11951;SDS011;6036;41.840;23.486;2022-10-18T05:49:03;67.05;;;37.90;;
11951;SDS011;6036;41.840;23.486;2022-10-18T05:51:29;53.72;;;30.95;;
11951;SDS011;6036;41.840;23.486;2022-10-18T05:53:54;60.20;;;32.05;;
11951;SDS011;6036;41.840;23.486;2022-10-18T05:56:20;62.20;;;34.75;;
11951;SDS011;6036;41.840;23.486;2022-10-18T05:58:48;64.68;;;34.35;;
11951;SDS011;6036;41.840;23.486;2022-10-18T06:01:15;51.60;;;31.52;;
11951;SDS011;6036;41.840;23.486;2022-10-18T06:03:40;64.97;;;34.45;;
11951;SDS011;6036;41.840;23.486;2022-10-18T06:06:06;52.97;;;31.77;;
11951;SDS011;6036;41.840;23.486;2022-10-18T06:08:34;59.58;;;33.60;;
11951;SDS011;6036;41.840;23.486;2022-10-18T06:11:07;66.22;;;38.70;;
11951;SDS011;6036;41.840;23.486;2022-10-18T06:13:38;81.15;;;44.25;;
11951;SDS011;6036;41.840;23.486;2022-10-18T06:16:05;60.42;;;35.65;;
11951;SDS011;6036;41.840;23.486;2022-10-18T06:18:30;49.10;;;28.73;;
11951;SDS011;6036;41.840;23.486;2022-10-18T06:20:56;34.20;;;21.67;;
11951;SDS011;6036;41.840;23.486;2022-10-18T06:23:23;32.00;;;19.80;;
11951;SDS011;6036;41.840;23.486;2022-10-18T06:25:48;31.25;;;18.63;;
11951;SDS011;6036;41.840;23.486;2022-10-18T06:28:14;34.83;;;21.17;;
11951;SDS011;6036;41.840;23.486;2022-10-18T06:30:39;31.58;;;21.52;;
11951;SDS011;6036;41.840;23.486;2022-10-18T06:33:04;31.48;;;22.15;;
11951;SDS011;6036;41.840;23.486;2022-10-18T06:35:30;40.60;;;25.00;;
11951;SDS011;6036;41.840;23.486;2022-10-18T06:37:55;40.20;;;24.60;;
11951;SDS011;6036;41.840;23.486;2022-10-18T06:40:21;36.17;;;21.20;;
11951;SDS011;6036;41.840;23.486;2022-10-18T06:42:47;37.05;;;22.60;;
11951;SDS011;6036;41.840;23.486;2022-10-18T06:45:13;31.15;;;20.25;;
11951;SDS011;6036;41.840;23.486;2022-10-18T06:47:40;39.95;;;20.73;;
11951;SDS011;6036;41.840;23.486;2022-10-18T06:50:05;28.70;;;19.42;;
11951;SDS011;6036;41.840;23.486;2022-10-18T06:52:31;26.45;;;18.33;;
11951;SDS011;6036;41.840;23.486;2022-10-18T06:54:56;28.85;;;17.40;;
11951;SDS011;6036;41.840;23.486;2022-10-18T06:57:22;22.88;;;15.27;;
11951;SDS011;6036;41.840;23.486;2022-10-18T06:59:47;23.17;;;16.42;;
11951;SDS011;6036;41.840;23.486;2022-10-18T07:02:14;34.28;;;21.48;;
11951;SDS011;6036;41.840;23.486;2022-10-18T07:04:43;42.95;;;25.30;;
11951;SDS011;6036;41.840;23.486;2022-10-18T07:07:09;37.55;;;24.42;;
11951;SDS011;6036;41.840;23.486;2022-10-18T07:09:34;35.38;;;24.25;;
11951;SDS011;6036;41.840;23.486;2022-10-18T07:12:00;34.95;;;24.55;;
11951;SDS011;6036;41.840;23.486;2022-10-18T07:14:25;36.72;;;24.38;;
11951;SDS011;6036;41.840;23.486;2022-10-18T07:16:50;31.63;;;22.23;;
11951;SDS011;6036;41.840;23.486;2022-10-18T07:19:16;31.80;;;21.45;;
11951;SDS011;6036;41.840;23.486;2022-10-18T07:21:41;37.70;;;22.92;;
11951;SDS011;6036;41.840;23.486;2022-10-18T07:24:07;28.38;;;20.35;;
11951;SDS011;6036;41.840;23.486;2022-10-18T07:26:34;22.67;;;18.05;;
11951;SDS011;6036;41.840;23.486;2022-10-18T07:29:03;27.08;;;18.50;;
11951;SDS011;6036;41.840;23.486;2022-10-18T07:31:31;25.40;;;18.15;;
11951;SDS011;6036;41.840;23.486;2022-10-18T07:33:57;22.05;;;16.95;;
11951;SDS011;6036;41.840;23.486;2022-10-18T07:36:23;20.75;;;15.25;;
11951;SDS011;6036;41.840;23.486;2022-10-18T07:38:53;18.92;;;15.52;;
11951;SDS011;6036;41.840;23.486;2022-10-18T07:41:18;21.92;;;15.90;;
11951;SDS011;6036;41.840;23.486;2022-10-18T07:43:45;28.05;;;18.00;;
11951;SDS011;6036;41.840;23.486;2022-10-18T07:46:13;26.08;;;18.48;;
11951;SDS011;6036;41.840;23.486;2022-10-18T07:48:39;23.23;;;17.67;;
11951;SDS011;6036;41.840;23.486;2022-10-18T07:51:05;25.00;;;16.70;;
11951;SDS011;6036;41.840;23.486;2022-10-18T07:53:31;21.35;;;16.48;;
11951;SDS011;6036;41.840;23.486;2022-10-18T07:55:59;26.65;;;17.23;;
11951;SDS011;6036;41.840;23.486;2022-10-18T07:58:25;23.15;;;16.60;;
11951;SDS011;6036;41.840;23.486;2022-10-18T08:00:51;23.05;;;15.85;;
11951;SDS011;6036;41.840;23.486;2022-10-18T08:03:17;21.45;;;15.32;;
11951;SDS011;6036;41.840;23.486;2022-10-18T08:05:42;22.77;;;14.40;;
11951;SDS011;6036;41.840;23.486;2022-10-18T08:08:08;21.25;;;13.10;;
11951;SDS011;6036;41.840;23.486;2022-10-18T08:10:34;16.38;;;10.82;;
11951;SDS011;6036;41.840;23.486;2022-10-18T08:13:00;7.15;;;5.70;;
11951;SDS011;6036;41.840;23.486;2022-10-18T08:15:25;10.65;;;7.60;;
11951;SDS011;6036;41.840;23.486;2022-10-18T08:17:51;11.45;;;8.98;;
11951;SDS011;6036;41.840;23.486;2022-10-18T08:20:16;8.50;;;6.50;;
11951;SDS011;6036;41.840;23.486;2022-10-18T08:22:42;13.30;;;10.43;;
11951;SDS011;6036;41.840;23.486;2022-10-18T08:25:08;17.27;;;13.20;;
11951;SDS011;6036;41.840;23.486;2022-10-18T08:27:33;16.95;;;12.52;;
11951;SDS011;6036;41.840;23.486;2022-10-18T08:29:59;17.70;;;12.23;;
11951;SDS011;6036;41.840;23.486;2022-10-18T08:32:26;11.55;;;10.18;;
11951;SDS011;6036;41.840;23.486;2022-10-18T08:34:52;11.65;;;9.93;;
11951;SDS011;6036;41.840;23.486;2022-10-18T08:37:18;11.20;;;9.27;;
11951;SDS011;6036;41.840;23.486;2022-10-18T08:39:43;12.25;;;9.90;;
11951;SDS011;6036;41.840;23.486;2022-10-18T08:44:37;17.43;;;13.40;;
11951;SDS011;6036;41.840;23.486;2022-10-18T08:50:02;13.13;;;9.73;;
11951;SDS011;6036;41.840;23.486;2022-10-18T08:57:34;5.65;;;5.05;;
11951;SDS011;6036;41.840;23.486;2022-10-18T09:00:19;6.80;;;6.18;;
11951;SDS011;6036;41.840;23.486;2022-10-18T09:05:40;4.03;;;3.65;;
11951;SDS011;6036;41.840;23.486;2022-10-18T09:16:55;6.32;;;5.72;;
11951;SDS011;6036;41.840;23.486;2022-10-18T09:19:42;7.18;;;5.00;;
11951;SDS011;6036;41.840;23.486;2022-10-18T09:22:15;5.72;;;5.10;;
11951;SDS011;6036;41.840;23.486;2022-10-18T09:24:44;5.20;;;4.43;;
11951;SDS011;6036;41.840;23.486;2022-10-18T09:27:17;7.50;;;4.60;;
11951;SDS011;6036;41.840;23.486;2022-10-18T09:35:02;5.38;;;4.88;;
11951;SDS011;6036;41.840;23.486;2022-10-18T09:37:37;4.35;;;3.88;;
11951;SDS011;6036;41.840;23.486;2022-10-18T09:40:37;15.88;;;3.80;;
11951;SDS011;6036;41.840;23.486;2022-10-18T09:43:02;5.22;;;4.30;;
11951;SDS011;6036;41.840;23.486;2022-10-18T09:45:40;3.78;;;2.80;;
11951;SDS011;6036;41.840;23.486;2022-10-18T09:48:12;3.50;;;2.63;;
11951;SDS011;6036;41.840;23.486;2022-10-18T09:50:57;3.72;;;2.80;;
11951;SDS011;6036;41.840;23.486;2022-10-18T09:56:16;2.10;;;1.90;;
11951;SDS011;6036;41.840;23.486;2022-10-18T09:58:47;5.35;;;2.00;;
11951;SDS011;6036;41.840;23.486;2022-10-18T10:01:16;1.30;;;1.20;;
11951;SDS011;6036;41.840;23.486;2022-10-18T10:03:46;4.28;;;2.35;;
11951;SDS011;6036;41.840;23.486;2022-10-18T10:08:40;1.95;;;0.82;;
11951;SDS011;6036;41.840;23.486;2022-10-18T10:11:27;1.25;;;0.88;;
11951;SDS011;6036;41.840;23.486;2022-10-18T10:14:07;2.35;;;0.80;;
11951;SDS011;6036;41.840;23.486;2022-10-18T10:16:33;1.70;;;0.90;;
11951;SDS011;6036;41.840;23.486;2022-10-18T10:19:14;7.22;;;1.33;;
11951;SDS011;6036;41.840;23.486;2022-10-18T10:21:44;1.45;;;0.95;;
11951;SDS011;6036;41.840;23.486;2022-10-18T10:24:18;3.05;;;1.50;;
11951;SDS011;6036;41.840;23.486;2022-10-18T10:26:47;1.58;;;0.90;;
11951;SDS011;6036;41.840;23.486;2022-10-18T10:32:14;0.98;;;0.63;;
11951;SDS011;6036;41.840;23.486;2022-10-18T10:34:42;3.60;;;0.75;;
11951;SDS011;6036;41.840;23.486;2022-10-18T10:45:24;4.75;;;1.15;;
11951;SDS011;6036;41.840;23.486;2022-10-18T10:47:52;2.45;;;0.50;;
11951;SDS011;6036;41.840;23.486;2022-10-18T10:50:26;1.25;;;0.63;;
11951;SDS011;6036;41.840;23.486;2022-10-18T10:52:53;3.42;;;1.30;;
11951;SDS011;6036;41.840;23.486;2022-10-18T10:55:21;3.35;;;1.17;;
11951;SDS011;6036;41.840;23.486;2022-10-18T10:57:51;3.22;;;1.08;;
11951;SDS011;6036;41.840;23.486;2022-10-18T11:03:12;1.30;;;0.75;;
11951;SDS011;6036;41.840;23.486;2022-10-18T11:05:44;3.47;;;1.70;;
11951;SDS011;6036;41.840;23.486;2022-10-18T11:08:34;2.40;;;1.15;;
11951;SDS011;6036;41.840;23.486;2022-10-18T11:11:25;0.88;;;0.60;;
11951;SDS011;6036;41.840;23.486;2022-10-18T11:16:49;10.13;;;1.42;;
11951;SDS011;6036;41.840;23.486;2022-10-18T11:22:19;1.92;;;0.73;;
11951;SDS011;6036;41.840;23.486;2022-10-18T11:24:49;1.35;;;1.02;;
11951;SDS011;6036;41.840;23.486;2022-10-18T11:37:58;3.88;;;1.17;;
11951;SDS011;6036;41.840;23.486;2022-10-18T11:41:04;0.88;;;0.43;;
11951;SDS011;6036;41.840;23.486;2022-10-18T11:43:36;0.85;;;0.65;;
11951;SDS011;6036;41.840;23.486;2022-10-18T11:46:56;0.32;;;0.30;;
11951;SDS011;6036;41.840;23.486;2022-10-18T12:05:44;0.40;;;0.40;;
11951;SDS011;6036;41.840;23.486;2022-10-18T12:10:53;2.35;;;1.83;;
11951;SDS011;6036;41.840;23.486;2022-10-18T12:16:15;2.78;;;0.50;;
11951;SDS011;6036;41.840;23.486;2022-10-18T12:18:51;0.85;;;0.80;;
11951;SDS011;6036;41.840;23.486;2022-10-18T12:21:20;8.60;;;3.95;;
11951;SDS011;6036;41.840;23.486;2022-10-18T12:23:51;2.45;;;1.42;;
11951;SDS011;6036;41.840;23.486;2022-10-18T12:26:20;2.22;;;1.77;;
11951;SDS011;6036;41.840;23.486;2022-10-18T12:31:29;2.13;;;1.90;;
11951;SDS011;6036;41.840;23.486;2022-10-18T12:34:13;2.65;;;2.35;;
11951;SDS011;6036;41.840;23.486;2022-10-18T12:39:46;2.55;;;1.83;;
11951;SDS011;6036;41.840;23.486;2022-10-18T12:42:25;2.17;;;1.50;;
11951;SDS011;6036;41.840;23.486;2022-10-18T12:45:03;1.55;;;1.15;;
11951;SDS011;6036;41.840;23.486;2022-10-18T12:47:38;2.53;;;1.40;;
11951;SDS011;6036;41.840;23.486;2022-10-18T12:50:06;4.00;;;3.10;;
11951;SDS011;6036;41.840;23.486;2022-10-18T12:53:00;1.83;;;1.65;;
11951;SDS011;6036;41.840;23.486;2022-10-18T12:55:41;2.70;;;1.77;;
11951;SDS011;6036;41.840;23.486;2022-10-18T13:16:31;3.50;;;1.80;;
11951;SDS011;6036;41.840;23.486;2022-10-18T13:30:37;2.85;;;2.30;;
11951;SDS011;6036;41.840;23.486;2022-10-18T13:33:33;2.08;;;1.30;;
11951;SDS011;6036;41.840;23.486;2022-10-18T13:36:05;2.30;;;1.15;;
11951;SDS011;6036;41.840;23.486;2022-10-18T14:00:16;1.55;;;0.45;;
11951;SDS011;6036;41.840;23.486;2022-10-18T14:08:21;0.73;;;0.30;;
11951;SDS011;6036;41.840;23.486;2022-10-18T14:13:55;0.85;;;0.20;;
11951;SDS011;6036;41.840;23.486;2022-10-18T14:16:28;0.57;;;0.47;;
11951;SDS011;6036;41.840;23.486;2022-10-18T14:24:54;1.23;;;0.63;;
11951;SDS011;6036;41.840;23.486;2022-10-18T14:29:49;1.67;;;0.93;;
11951;SDS011;6036;41.840;23.486;2022-10-18T14:32:30;0.57;;;0.50;;
11951;SDS011;6036;41.840;23.486;2022-10-18T14:34:56;0.20;;;0.20;;
11951;SDS011;6036;41.840;23.486;2022-10-18T14:37:26;1.33;;;0.50;;
11951;SDS011;6036;41.840;23.486;2022-10-18T14:39:56;1.23;;;0.35;;
11951;SDS011;6036;41.840;23.486;2022-10-18T14:42:22;0.38;;;0.20;;
11951;SDS011;6036;41.840;23.486;2022-10-18T14:44:49;1.30;;;0.60;;
11951;SDS011;6036;41.840;23.486;2022-10-18T14:47:16;0.95;;;0.50;;
11951;SDS011;6036;41.840;23.486;2022-10-18T14:49:49;1.30;;;0.50;;
11951;SDS011;6036;41.840;23.486;2022-10-18T14:52:29;0.90;;;0.43;;
11951;SDS011;6036;41.840;23.486;2022-10-18T14:54:57;0.50;;;0.40;;
11951;SDS011;6036;41.840;23.486;2022-10-18T14:57:26;0.43;;;0.35;;
11951;SDS011;6036;41.840;23.486;2022-10-18T14:59:58;0.60;;;0.30;;
11951;SDS011;6036;41.840;23.486;2022-10-18T15:02:28;1.27;;;0.50;;
11951;SDS011;6036;41.840;23.486;2022-10-18T15:04:59;0.65;;;0.30;;
11951;SDS011;6036;41.840;23.486;2022-10-18T15:07:34;1.48;;;0.50;;
11951;SDS011;6036;41.840;23.486;2022-10-18T15:10:00;0.60;;;0.40;;
11951;SDS011;6036;41.840;23.486;2022-10-18T15:12:28;0.98;;;0.40;;
11951;SDS011;6036;41.840;23.486;2022-10-18T15:14:56;0.57;;;0.47;;
11951;SDS011;6036;41.840;23.486;2022-10-18T15:17:29;0.40;;;0.30;;
11951;SDS011;6036;41.840;23.486;2022-10-18T15:22:25;0.60;;;0.30;;
11951;SDS011;6036;41.840;23.486;2022-10-18T15:25:05;0.22;;;0.10;;
11951;SDS011;6036;41.840;23.486;2022-10-18T15:27:39;0.63;;;0.30;;
11951;SDS011;6036;41.840;23.486;2022-10-18T15:30:13;0.80;;;0.30;;
11951;SDS011;6036;41.840;23.486;2022-10-18T15:32:51;1.65;;;0.40;;
11951;SDS011;6036;41.840;23.486;2022-10-18T15:35:33;1.25;;;0.50;;
11951;SDS011;6036;41.840;23.486;2022-10-18T15:40:52;0.88;;;0.40;;
11951;SDS011;6036;41.840;23.486;2022-10-18T15:45:57;0.52;;;0.32;;
11951;SDS011;6036;41.840;23.486;2022-10-18T15:48:35;0.43;;;0.35;;
11951;SDS011;6036;41.840;23.486;2022-10-18T15:51:03;0.50;;;0.50;;
11951;SDS011;6036;41.840;23.486;2022-10-18T15:53:34;3.20;;;1.20;;
11951;SDS011;6036;41.840;23.486;2022-10-18T15:56:08;4.03;;;0.88;;
11951;SDS011;6036;41.840;23.486;2022-10-18T15:58:49;1.60;;;1.20;;
11951;SDS011;6036;41.840;23.486;2022-10-18T16:01:37;1.92;;;1.00;;
11951;SDS011;6036;41.840;23.486;2022-10-18T16:04:17;1.08;;;0.40;;
11951;SDS011;6036;41.840;23.486;2022-10-18T16:06:47;0.30;;;0.30;;
11951;SDS011;6036;41.840;23.486;2022-10-18T16:09:14;2.38;;;0.93;;
11951;SDS011;6036;41.840;23.486;2022-10-18T16:11:41;0.77;;;0.40;;
11951;SDS011;6036;41.840;23.486;2022-10-18T16:14:07;2.50;;;0.47;;
11951;SDS011;6036;41.840;23.486;2022-10-18T16:16:32;0.10;;;0.10;;
11951;SDS011;6036;41.840;23.486;2022-10-18T16:18:58;0.40;;;0.30;;
11951;SDS011;6036;41.840;23.486;2022-10-18T16:21:25;0.45;;;0.45;;
11951;SDS011;6036;41.840;23.486;2022-10-18T16:23:53;1.00;;;0.30;;
11951;SDS011;6036;41.840;23.486;2022-10-18T16:26:19;0.43;;;0.30;;
11951;SDS011;6036;41.840;23.486;2022-10-18T16:28:45;2.15;;;0.65;;
11951;SDS011;6036;41.840;23.486;2022-10-18T16:31:14;0.20;;;0.10;;
11951;SDS011;6036;41.840;23.486;2022-10-18T16:33:45;0.55;;;0.30;;
11951;SDS011;6036;41.840;23.486;2022-10-18T16:36:30;0.57;;;0.13;;
11951;SDS011;6036;41.840;23.486;2022-10-18T16:38:57;0.80;;;0.60;;
11951;SDS011;6036;41.840;23.486;2022-10-18T16:41:25;3.38;;;0.73;;
11951;SDS011;6036;41.840;23.486;2022-10-18T16:43:51;0.22;;;0.20;;
11951;SDS011;6036;41.840;23.486;2022-10-18T16:46:21;0.20;;;0.10;;
11951;SDS011;6036;41.840;23.486;2022-10-18T16:48:51;0.15;;;0.10;;
11951;SDS011;6036;41.840;23.486;2022-10-18T16:51:17;0.20;;;0.20;;
11951;SDS011;6036;41.840;23.486;2022-10-18T16:53:43;0.20;;;0.20;;
11951;SDS011;6036;41.840;23.486;2022-10-18T16:56:16;1.58;;;0.30;;
11951;SDS011;6036;41.840;23.486;2022-10-18T16:58:43;0.20;;;0.20;;
11951;SDS011;6036;41.840;23.486;2022-10-18T17:01:10;0.52;;;0.22;;
11951;SDS011;6036;41.840;23.486;2022-10-18T17:03:37;1.67;;;0.50;;
11951;SDS011;6036;41.840;23.486;2022-10-18T17:06:02;0.43;;;0.43;;
11951;SDS011;6036;41.840;23.486;2022-10-18T17:08:28;0.60;;;0.47;;
11951;SDS011;6036;41.840;23.486;2022-10-18T17:10:54;0.30;;;0.20;;
11951;SDS011;6036;41.840;23.486;2022-10-18T17:13:22;1.20;;;0.55;;
11951;SDS011;6036;41.840;23.486;2022-10-18T17:15:48;1.83;;;0.60;;
11951;SDS011;6036;41.840;23.486;2022-10-18T17:18:16;1.02;;;0.73;;
11951;SDS011;6036;41.840;23.486;2022-10-18T17:20:46;1.42;;;0.88;;
11951;SDS011;6036;41.840;23.486;2022-10-18T17:23:12;1.13;;;0.60;;
11951;SDS011;6036;41.840;23.486;2022-10-18T17:25:39;0.80;;;0.70;;
11951;SDS011;6036;41.840;23.486;2022-10-18T17:28:09;0.98;;;0.70;;
11951;SDS011;6036;41.840;23.486;2022-10-18T17:30:36;1.20;;;0.70;;
11951;SDS011;6036;41.840;23.486;2022-10-18T17:33:03;0.88;;;0.63;;
11951;SDS011;6036;41.840;23.486;2022-10-18T17:35:29;0.90;;;0.75;;
11951;SDS011;6036;41.840;23.486;2022-10-18T17:37:54;1.67;;;0.60;;
11951;SDS011;6036;41.840;23.486;2022-10-18T17:40:19;0.70;;;0.70;;
11951;SDS011;6036;41.840;23.486;2022-10-18T17:42:48;0.95;;;0.60;;
11951;SDS011;6036;41.840;23.486;2022-10-18T17:45:16;1.38;;;0.80;;
11951;SDS011;6036;41.840;23.486;2022-10-18T17:47:42;1.10;;;0.70;;
11951;SDS011;6036;41.840;23.486;2022-10-18T17:50:08;3.03;;;1.63;;
11951;SDS011;6036;41.840;23.486;2022-10-18T17:52:33;1.15;;;0.75;;
11951;SDS011;6036;41.840;23.486;2022-10-18T17:54:59;0.50;;;0.40;;
11951;SDS011;6036;41.840;23.486;2022-10-18T17:57:24;1.33;;;0.80;;
11951;SDS011;6036;41.840;23.486;2022-10-18T17:59:50;1.30;;;0.60;;
11951;SDS011;6036;41.840;23.486;2022-10-18T18:02:18;0.50;;;0.50;;
11951;SDS011;6036;41.840;23.486;2022-10-18T18:04:44;0.57;;;0.40;;
11951;SDS011;6036;41.840;23.486;2022-10-18T18:07:09;0.73;;;0.50;;
11951;SDS011;6036;41.840;23.486;2022-10-18T18:09:35;1.30;;;0.50;;